createdAt,value
2019-06-10T00:02:07.916Z,75.10
2019-06-10T00:04:37.497Z,74.90
2019-06-10T00:07:07.467Z,75.40
2019-06-10T00:09:37.401Z,76.50
2019-06-10T00:12:08.131Z,77.00
2019-06-10T00:14:38.680Z,78.10
2019-06-10T00:17:10.762Z,78.70
2019-06-10T00:19:40.937Z,78.90
2019-06-10T00:22:11.643Z,79.20
2019-06-10T00:24:41.665Z,79.20
2019-06-10T00:27:11.983Z,78.90
2019-06-10T00:29:41.718Z,79.00
2019-06-10T00:32:13.050Z,79.50
2019-06-10T00:34:42.395Z,79.20
2019-06-10T00:37:14.743Z,79.50
2019-06-10T00:39:43.299Z,80.00
2019-06-10T00:42:15.120Z,80.20
2019-06-10T00:44:44.045Z,80.00
2019-06-10T00:47:15.239Z,80.10
2019-06-10T00:49:45.039Z,80.20
2019-06-10T00:52:14.604Z,80.20
2019-06-10T00:54:44.239Z,80.20
2019-06-10T00:57:13.875Z,80.40
2019-06-10T00:59:43.418Z,80.40
2019-06-10T01:02:14.478Z,80.50
2019-06-10T01:04:45.316Z,80.80
2019-06-10T01:07:15.116Z,81.00
2019-06-10T01:09:44.695Z,81.40
2019-06-10T01:12:14.961Z,81.50
2019-06-10T01:14:44.662Z,81.50
2019-06-10T01:17:15.466Z,81.80
2019-06-10T01:19:45.355Z,82.40
2019-06-10T01:22:15.935Z,82.50
2019-06-10T01:24:45.975Z,82.10
2019-06-10T01:27:15.603Z,81.90
2019-06-10T01:29:45.250Z,82.30
2019-06-10T01:32:15.117Z,81.90
2019-06-10T01:34:44.882Z,81.90
2019-06-10T01:37:16.015Z,82.20
2019-06-10T01:39:45.691Z,82.60
2019-06-10T01:42:15.892Z,82.80
2019-06-10T01:44:46.787Z,83.40
2019-06-10T01:47:17.588Z,83.30
2019-06-10T01:49:47.467Z,83.70
2019-06-10T01:52:18.358Z,84.00
2019-06-10T01:54:48.086Z,83.80
2019-06-10T01:57:21.262Z,83.30
2019-06-10T01:59:50.916Z,83.30
2019-06-10T02:02:23.961Z,83.50
2019-06-10T02:04:53.626Z,83.10
2019-06-10T02:07:23.532Z,83.00
2019-06-10T02:09:53.098Z,84.50
2019-06-10T02:12:24.106Z,85.20
2019-06-10T02:14:54.046Z,85.10
2019-06-10T02:17:24.026Z,85.10
2019-06-10T02:19:54.934Z,85.00
2019-06-10T02:22:24.682Z,85.50
2019-06-10T02:24:54.418Z,85.40
2019-06-10T02:27:24.000Z,86.10
2019-06-10T02:29:53.703Z,85.40
2019-06-10T02:32:31.662Z,84.60
2019-06-10T02:35:08.102Z,84.30
2019-06-10T02:37:32.240Z,85.30
2019-06-10T02:39:57.129Z,85.70
2019-06-10T02:42:30.681Z,86.10
2019-06-10T02:45:03.284Z,86.10
2019-06-10T02:47:35.170Z,86.20
2019-06-10T02:50:07.773Z,86.30
2019-06-10T02:52:38.255Z,86.30
2019-06-10T02:55:05.116Z,86.50
2019-06-10T02:57:39.652Z,86.60
2019-06-10T03:00:19.803Z,86.20
2019-06-10T03:02:39.558Z,86.60
2019-06-10T03:05:09.223Z,87.10
2019-06-10T03:07:38.932Z,87.00
2019-06-10T03:10:08.636Z,86.50
2019-06-10T03:12:38.337Z,86.10
2019-06-10T03:15:08.845Z,86.00
2019-06-10T03:17:38.433Z,85.70
2019-06-10T03:20:08.475Z,86.60
2019-06-10T03:22:38.112Z,86.90
2019-06-10T03:25:07.826Z,88.30
2019-06-10T03:27:37.426Z,88.40
2019-06-10T03:30:15.798Z,88.40
2019-06-10T03:32:45.356Z,88.80
2019-06-10T03:35:12.992Z,89.10
2019-06-10T03:37:42.374Z,89.20
2019-06-10T03:40:13.105Z,89.40
2019-06-10T03:42:42.908Z,89.50
2019-06-10T03:45:12.915Z,89.70
2019-06-10T03:47:42.802Z,89.60
2019-06-10T03:50:13.369Z,89.80
2019-06-10T03:52:43.261Z,89.10
2019-06-10T03:55:13.425Z,89.20
2019-06-10T03:57:43.117Z,89.30
2019-06-10T04:00:14.008Z,89.00
2019-06-10T04:02:43.895Z,89.20
2019-06-10T04:05:13.620Z,88.70
2019-06-10T04:07:43.254Z,88.70
2019-06-10T04:10:13.101Z,89.00
2019-06-10T04:12:43.434Z,88.80
2019-06-10T04:15:13.459Z,89.10
2019-06-10T04:17:43.108Z,89.20
2019-06-10T04:20:15.448Z,88.50
2019-06-10T04:22:44.470Z,87.90
2019-06-10T04:25:14.361Z,87.70
2019-06-10T04:27:43.844Z,86.70
2019-06-10T04:30:16.604Z,86.00
2019-06-10T04:32:44.945Z,85.20
2019-06-10T04:35:14.573Z,84.80
2019-06-10T04:37:44.197Z,84.60
2019-06-10T04:40:13.939Z,83.80
2019-06-10T04:42:43.737Z,83.60
2019-06-10T04:45:13.657Z,83.60
2019-06-10T04:47:43.330Z,85.80
2019-06-10T04:50:23.941Z,87.20
2019-06-10T04:52:44.212Z,87.40
2019-06-10T04:55:13.946Z,86.50
2019-06-10T04:57:43.582Z,85.30
2019-06-10T05:00:14.728Z,84.80
2019-06-10T05:02:44.459Z,84.60
2019-06-10T05:05:14.103Z,84.60
2019-06-10T05:07:43.612Z,83.20
2019-06-10T05:10:13.512Z,82.80
2019-06-10T05:12:43.383Z,82.60
2019-06-10T05:15:14.145Z,82.00
2019-06-10T05:17:43.937Z,81.50
2019-06-10T05:20:13.895Z,81.30
2019-06-10T05:22:43.389Z,82.30
2019-06-10T05:25:13.137Z,83.00
2019-06-10T05:27:43.059Z,84.80
2019-06-10T05:30:13.173Z,83.90
2019-06-10T05:32:43.240Z,84.60
2019-06-10T05:35:13.211Z,86.00
2019-06-10T05:37:42.846Z,86.20
2019-06-10T05:40:13.029Z,85.70
2019-06-10T05:42:42.760Z,85.90
2019-06-10T05:45:12.862Z,85.00
2019-06-10T05:47:42.842Z,84.30
2019-06-10T05:50:13.989Z,82.80
2019-06-10T05:52:43.552Z,82.70
2019-06-10T05:55:13.217Z,81.80
2019-06-10T05:57:42.984Z,79.80
2019-06-10T06:00:14.918Z,77.30
2019-06-10T06:02:44.127Z,75.70
2019-06-10T06:05:14.075Z,75.10
2019-06-10T06:07:43.797Z,76.10
2019-06-10T06:10:13.872Z,75.90
2019-06-10T06:12:43.524Z,76.50
2019-06-10T06:15:13.450Z,76.80
2019-06-10T06:17:43.388Z,76.50
2019-06-10T06:20:13.459Z,77.70
2019-06-10T06:22:43.193Z,78.00
2019-06-10T06:25:15.519Z,77.60
2019-06-10T06:27:45.406Z,76.70
2019-06-10T06:30:18.753Z,77.00
2019-06-10T06:32:46.931Z,77.00
2019-06-10T06:35:16.684Z,77.50
2019-06-10T06:37:46.260Z,77.40
2019-06-10T06:40:16.071Z,78.10
2019-06-10T06:42:45.649Z,76.80
2019-06-10T06:45:16.962Z,75.80
2019-06-10T06:47:46.468Z,75.90
2019-06-10T06:50:16.406Z,76.60
2019-06-10T06:53:15.336Z,75.60
2019-06-10T06:55:17.537Z,75.70
2019-06-10T06:57:47.185Z,74.90
2019-06-10T07:00:38.693Z,74.40
2019-06-10T07:02:52.820Z,74.40
2019-06-10T07:05:22.952Z,73.90
2019-06-10T07:07:53.392Z,73.80
2019-06-10T07:10:23.317Z,72.90
2019-06-10T07:12:54.630Z,70.90
2019-06-10T07:15:41.098Z,69.90
2019-06-10T07:18:13.002Z,69.50
2019-06-10T07:20:45.635Z,69.20
2019-06-10T07:23:14.739Z,68.70
2019-06-10T07:25:47.235Z,66.20
2019-06-10T07:28:15.638Z,65.00
2019-06-10T07:30:51.203Z,65.90
2019-06-10T07:33:16.700Z,65.60
2019-06-10T07:35:46.275Z,64.70
2019-06-10T07:38:15.893Z,63.80
2019-06-10T07:40:45.909Z,64.60
2019-06-10T07:43:15.713Z,66.30
2019-06-10T07:45:47.956Z,64.10
2019-06-10T07:48:16.594Z,63.40
2019-06-10T07:50:46.302Z,62.70
2019-06-10T07:53:33.167Z,64.10
2019-06-10T07:56:03.505Z,63.40
2019-06-10T07:58:35.197Z,61.00
2019-06-10T08:01:04.641Z,62.40
2019-06-10T08:03:35.306Z,61.70
2019-06-10T08:06:06.503Z,61.40
2019-06-10T08:08:36.827Z,60.90
2019-06-10T08:11:06.575Z,59.60
2019-06-10T08:13:37.254Z,59.70
2019-06-10T08:16:06.941Z,60.10
2019-06-10T08:18:41.727Z,59.10
2019-06-10T08:21:07.963Z,59.10
2019-06-10T08:23:38.542Z,59.10
2019-06-10T08:26:08.261Z,59.00
2019-06-10T08:28:37.823Z,58.00
2019-06-10T08:31:07.460Z,58.40
2019-06-10T08:33:37.032Z,58.00
2019-06-10T08:36:06.646Z,58.90
2019-06-10T08:38:36.359Z,57.70
2019-06-10T08:41:07.981Z,57.30
2019-06-10T08:43:38.538Z,57.10
2019-06-10T08:46:08.217Z,56.40
2019-06-10T08:48:55.601Z,56.60
2019-06-10T08:51:46.624Z,55.80
2019-06-10T08:54:14.267Z,55.90
2019-06-10T08:56:47.654Z,55.60
2019-06-10T08:59:15.237Z,55.00
2019-06-10T09:01:48.360Z,53.80
2019-06-10T09:04:16.697Z,53.40
2019-06-10T09:06:49.546Z,52.50
2019-06-10T09:09:17.669Z,51.00
2019-06-10T09:11:49.682Z,50.20
2019-06-10T09:14:18.428Z,50.10
2019-06-10T09:16:49.351Z,49.80
2019-06-10T09:19:19.209Z,48.50
2019-06-10T09:21:51.569Z,48.50
2019-06-10T09:24:22.258Z,48.10
2019-06-10T09:26:54.814Z,47.00
2019-06-10T09:29:23.023Z,45.80
2019-06-10T09:31:55.559Z,44.30
2019-06-10T09:34:23.970Z,45.40
2019-06-10T09:36:56.579Z,46.50
2019-06-10T09:39:24.944Z,46.30
2019-06-10T09:42:02.317Z,46.60
2019-06-10T09:44:25.765Z,45.40
2019-06-10T09:47:00.107Z,45.20
2019-06-10T09:49:28.420Z,45.50
2019-06-10T09:51:58.056Z,45.20
2019-06-10T09:54:28.839Z,45.30
2019-06-10T09:56:58.542Z,44.80
2019-06-10T09:59:28.123Z,44.80
2019-06-10T10:02:02.540Z,44.60
2019-06-10T10:04:29.246Z,44.40
2019-06-10T10:07:02.928Z,43.80
2019-06-10T10:09:36.696Z,44.10
2019-06-10T10:12:04.382Z,43.70
2019-06-10T10:14:34.098Z,42.70
2019-06-10T10:17:04.834Z,43.40
2019-06-10T10:19:34.642Z,42.60
2019-06-10T10:22:04.296Z,42.70
2019-06-10T10:24:34.192Z,41.30
2019-06-10T10:27:08.272Z,42.20
2019-06-10T10:29:35.106Z,42.00
2019-06-10T10:32:04.746Z,41.70
2019-06-10T10:34:34.416Z,42.90
2019-06-10T10:37:03.975Z,43.20
2019-06-10T10:39:33.613Z,44.10
2019-06-10T10:42:03.926Z,43.20
2019-06-10T10:44:33.691Z,44.10
2019-06-10T10:47:03.816Z,43.50
2019-06-10T10:49:33.474Z,43.40
2019-06-10T10:52:03.061Z,42.60
2019-06-10T10:54:36.430Z,42.60
2019-06-10T10:57:03.819Z,44.10
2019-06-10T10:59:34.526Z,45.00
2019-06-10T11:02:04.195Z,45.10
2019-06-10T11:04:33.902Z,45.40
2019-06-10T11:07:03.555Z,44.90
2019-06-10T11:09:34.272Z,45.20
2019-06-10T11:12:04.512Z,44.80
2019-06-10T11:14:34.322Z,45.10
2019-06-10T11:17:03.952Z,45.80
2019-06-10T11:19:33.627Z,46.40
2019-06-10T11:22:03.161Z,46.50
2019-06-10T11:24:40.157Z,47.10
2019-06-10T11:27:05.238Z,47.10
2019-06-10T11:29:34.800Z,46.10
2019-06-10T11:32:04.643Z,46.80
2019-06-10T11:34:34.138Z,47.20
2019-06-10T11:37:03.700Z,46.30
2019-06-10T11:39:37.846Z,46.70
2019-06-10T11:42:04.699Z,46.70
2019-06-10T11:44:35.413Z,46.70
2019-06-10T11:47:05.165Z,47.40
2019-06-10T11:49:34.730Z,47.20
2019-06-10T11:52:04.382Z,47.40
2019-06-10T11:54:47.847Z,47.20
2019-06-10T11:57:05.354Z,47.90
2019-06-10T11:59:34.928Z,47.60
2019-06-10T12:02:05.996Z,48.40
2019-06-10T12:04:35.829Z,46.50
2019-06-10T12:07:05.475Z,47.50
2019-06-10T12:09:34.974Z,47.60
2019-06-10T12:12:04.695Z,47.50
2019-06-10T12:14:34.322Z,48.10
2019-06-10T12:17:34.956Z,48.60
2019-06-10T12:19:35.231Z,48.70
2019-06-10T12:22:07.546Z,48.30
2019-06-10T12:24:36.077Z,49.10
2019-06-10T12:27:05.578Z,48.10
2019-06-10T12:29:35.253Z,49.30
2019-06-10T12:32:07.205Z,48.90
2019-06-10T12:34:36.718Z,50.00
2019-06-10T12:37:11.355Z,49.70
2019-06-10T12:39:37.994Z,50.00
2019-06-10T12:42:10.959Z,49.90
2019-06-10T12:44:38.838Z,49.00
2019-06-10T12:47:08.474Z,47.90
2019-06-10T12:49:38.037Z,48.50
2019-06-10T12:52:07.874Z,49.10
2019-06-10T12:54:37.515Z,48.60
2019-06-10T12:57:07.330Z,48.20
2019-06-10T12:59:37.004Z,48.60
2019-06-10T13:02:16.732Z,48.70
2019-06-10T13:04:38.984Z,49.50
2019-06-10T13:07:09.316Z,50.30
2019-06-10T13:09:40.250Z,50.30
2019-06-10T13:12:12.306Z,49.40
2019-06-10T13:14:43.516Z,49.10
2019-06-10T13:17:13.171Z,47.90
2019-06-10T13:19:43.295Z,47.70
2019-06-10T13:22:14.252Z,46.80
2019-06-10T13:24:43.743Z,46.90
2019-06-10T13:27:13.407Z,48.30
2019-06-10T13:29:43.953Z,48.10
2019-06-10T13:32:14.739Z,46.50
2019-06-10T13:34:44.237Z,48.00
2019-06-10T13:37:16.126Z,48.70
2019-06-10T13:39:45.166Z,48.90
2019-06-10T13:42:14.948Z,48.90
2019-06-10T13:44:44.660Z,48.60
2019-06-10T13:47:15.919Z,48.80
2019-06-10T13:49:45.495Z,49.00
2019-06-10T13:52:16.838Z,47.00
2019-06-10T13:54:46.497Z,46.20
2019-06-10T13:57:16.147Z,46.30
2019-06-10T13:59:46.550Z,48.00
2019-06-10T14:02:17.574Z,47.70
2019-06-10T14:04:48.290Z,47.50
2019-06-10T14:07:17.857Z,46.60
2019-06-10T14:09:47.789Z,46.60
2019-06-10T14:12:17.888Z,46.40
2019-06-10T14:14:47.698Z,47.10
2019-06-10T14:17:19.397Z,46.70
2019-06-10T14:19:48.466Z,47.90
2019-06-10T14:22:18.033Z,47.60
2019-06-10T14:24:47.614Z,47.20
2019-06-10T14:27:21.184Z,47.20
2019-06-10T14:29:48.692Z,47.00
2019-06-10T14:32:18.254Z,47.20
2019-06-10T14:34:47.758Z,48.00
2019-06-10T14:37:32.224Z,49.10
2019-06-10T14:39:48.661Z,48.90
2019-06-10T14:42:18.367Z,48.90
2019-06-10T14:44:47.975Z,49.20
2019-06-10T14:47:17.619Z,48.80
2019-06-10T14:49:47.242Z,49.60
2019-06-10T14:52:17.071Z,49.50
2019-06-10T14:54:47.842Z,48.80
2019-06-10T14:57:17.430Z,48.90
2019-06-10T14:59:46.994Z,49.20
2019-06-10T15:02:17.502Z,48.00
2019-06-10T15:04:47.311Z,48.60
2019-06-10T15:07:16.810Z,48.60
2019-06-10T15:09:46.442Z,49.10
2019-06-10T15:12:17.447Z,48.20
2019-06-10T15:14:47.198Z,47.80
2019-06-10T15:17:16.964Z,48.10
2019-06-10T15:19:46.577Z,48.10
2019-06-10T15:22:17.006Z,47.40
2019-06-10T15:24:46.791Z,47.00
2019-06-10T15:27:26.695Z,48.80
2019-06-10T15:29:47.406Z,47.50
2019-06-10T15:32:29.769Z,47.50
2019-06-10T15:34:48.364Z,47.00
2019-06-10T15:37:19.363Z,45.70
2019-06-10T15:39:49.121Z,45.40
2019-06-10T15:42:19.734Z,46.50
2019-06-10T15:44:53.493Z,47.10
2019-06-10T15:47:25.964Z,47.30
2019-06-10T15:49:52.559Z,47.30
2019-06-10T15:52:24.915Z,47.10
2019-06-10T15:54:53.434Z,47.80
2019-06-10T15:57:38.949Z,47.80
2019-06-10T15:59:54.192Z,47.80
2019-06-10T16:02:25.575Z,48.80
2019-06-10T16:04:55.125Z,47.90
2019-06-10T16:07:25.627Z,48.80
2019-06-10T16:09:55.541Z,48.30
2019-06-10T16:12:26.932Z,47.80
2019-06-10T16:14:56.724Z,47.70
2019-06-10T16:17:29.800Z,47.20
2019-06-10T16:19:57.744Z,48.00
2019-06-10T16:22:27.450Z,48.60
2019-06-10T16:24:57.111Z,48.80
2019-06-10T16:27:43.616Z,49.00
2019-06-10T16:29:59.130Z,49.00
2019-06-10T16:32:28.778Z,49.30
2019-06-10T16:34:58.410Z,48.40
2019-06-10T16:37:28.007Z,49.40
2019-06-10T16:39:57.701Z,50.40
2019-06-10T16:42:27.548Z,48.90
2019-06-10T16:44:57.440Z,48.10
2019-06-10T16:47:27.406Z,47.20
2019-06-10T16:49:57.003Z,47.20
2019-06-10T16:52:27.717Z,45.70
2019-06-10T16:54:57.393Z,47.00
2019-06-10T16:57:27.393Z,47.10
2019-06-10T16:59:58.057Z,48.40
2019-06-10T17:02:27.697Z,48.20
2019-06-10T17:04:58.521Z,48.70
2019-06-10T17:07:29.207Z,48.70
2019-06-10T17:09:58.887Z,49.50
2019-06-10T17:12:28.527Z,50.60
2019-06-10T17:14:58.150Z,51.10
2019-06-10T17:17:28.630Z,51.60
2019-06-10T17:19:59.671Z,51.10
2019-06-10T17:22:30.971Z,52.20
2019-06-10T17:25:00.650Z,51.00
2019-06-10T17:27:32.634Z,50.50
2019-06-10T17:30:02.856Z,50.70
2019-06-10T17:32:33.812Z,49.50
2019-06-10T17:35:03.855Z,49.30
2019-06-10T17:37:33.750Z,50.20
2019-06-10T17:40:05.338Z,51.20
2019-06-10T17:42:38.280Z,51.20
2019-06-10T17:45:07.029Z,51.50
2019-06-10T17:47:36.748Z,51.50
2019-06-10T17:50:07.892Z,51.20
2019-06-10T17:52:38.864Z,51.60
2019-06-10T17:55:09.281Z,51.70
2019-06-10T17:57:39.106Z,51.90
2019-06-10T18:00:14.118Z,51.00
2019-06-10T18:02:42.569Z,50.30
2019-06-10T18:05:12.831Z,50.70
2019-06-10T18:07:42.548Z,50.30
2019-06-10T18:10:13.231Z,50.00
2019-06-10T18:12:42.899Z,50.20
2019-06-10T18:15:12.910Z,50.40
2019-06-10T18:17:42.758Z,50.20
2019-06-10T18:20:13.586Z,49.80
2019-06-10T18:22:43.287Z,49.20
2019-06-10T18:25:13.022Z,49.60
2019-06-10T18:27:42.686Z,49.80
2019-06-10T18:30:14.296Z,48.60
2019-06-10T18:32:44.116Z,48.90
2019-06-10T18:35:14.421Z,50.40
2019-06-10T18:37:44.206Z,51.50
2019-06-10T18:40:14.723Z,52.00
2019-06-10T18:42:44.638Z,52.40
2019-06-10T18:45:15.106Z,53.10
2019-06-10T18:47:44.788Z,53.10
2019-06-10T18:50:15.926Z,53.30
2019-06-10T18:52:45.436Z,52.90
2019-06-10T18:55:15.887Z,53.00
2019-06-10T18:57:45.582Z,53.10
2019-06-10T19:00:15.697Z,53.20
2019-06-10T19:02:46.414Z,53.50
2019-06-10T19:05:16.626Z,52.70
2019-06-10T19:07:46.935Z,53.00
2019-06-10T19:10:17.082Z,52.10
2019-06-10T19:12:46.805Z,51.80
2019-06-10T19:15:18.224Z,52.00
2019-06-10T19:17:47.858Z,49.90
2019-06-10T19:20:17.920Z,50.60
2019-06-10T19:22:47.582Z,51.10
2019-06-10T19:25:17.401Z,51.00
2019-06-10T19:27:46.967Z,51.60
2019-06-10T19:30:17.678Z,51.60
2019-06-10T19:32:47.380Z,51.80
2019-06-10T19:35:17.191Z,51.60
2019-06-10T19:37:46.748Z,51.80
2019-06-10T19:40:16.633Z,51.20
2019-06-10T19:42:46.196Z,51.30
2019-06-10T19:45:16.228Z,50.90
2019-06-10T19:47:45.983Z,51.60
2019-06-10T19:50:15.915Z,50.30
2019-06-10T19:52:45.605Z,50.80
2019-06-10T19:55:15.709Z,51.30
2019-06-10T19:57:45.371Z,51.50
2019-06-10T20:00:15.725Z,51.40
2019-06-10T20:02:46.997Z,51.30
2019-06-10T20:05:17.197Z,50.40
2019-06-10T20:07:50.258Z,49.50
2019-06-10T20:10:19.761Z,49.90
2019-06-10T20:12:49.501Z,50.10
2019-06-10T20:15:25.836Z,48.90
2019-06-10T20:17:55.476Z,48.30
2019-06-10T20:20:25.156Z,47.50
2019-06-10T20:22:57.364Z,46.90
2019-06-10T20:25:26.160Z,47.30
2019-06-10T20:27:55.835Z,48.30
2019-06-10T20:30:28.973Z,49.00
2019-06-10T20:32:56.970Z,49.30
2019-06-10T20:35:26.588Z,49.60
2019-06-10T20:37:56.305Z,49.30
2019-06-10T20:40:26.939Z,50.00
2019-06-10T20:42:56.582Z,50.20
2019-06-10T20:45:26.141Z,51.00
2019-06-10T20:47:55.719Z,50.40
2019-06-10T20:50:25.229Z,48.20
2019-06-10T20:52:54.870Z,48.00
2019-06-10T20:55:39.812Z,49.60
2019-06-10T20:58:03.525Z,50.30
2019-06-10T21:00:35.291Z,50.90
2019-06-10T21:03:05.969Z,50.60
2019-06-10T21:05:36.017Z,50.40
2019-06-10T21:08:06.821Z,49.30
2019-06-10T21:10:39.643Z,48.30
2019-06-10T21:13:09.457Z,49.20
2019-06-10T21:15:40.529Z,49.90
2019-06-10T21:18:13.028Z,50.80
2019-06-10T21:20:46.564Z,50.90
2019-06-10T21:23:16.026Z,51.20
2019-06-10T21:25:47.810Z,51.20
2019-06-10T21:28:15.691Z,50.90
2019-06-10T21:30:49.651Z,50.60
2019-06-10T21:33:16.428Z,50.70
2019-06-10T21:35:47.379Z,50.60
2019-06-10T21:38:17.174Z,50.10
2019-06-10T21:40:48.064Z,50.20
2019-06-10T21:43:17.858Z,50.20
2019-06-10T21:45:51.198Z,49.70
2019-06-10T21:48:18.936Z,49.60
2019-06-10T21:50:49.807Z,49.90
2019-06-10T21:53:22.170Z,49.20
2019-06-10T21:55:53.481Z,49.30
2019-06-10T21:58:22.893Z,49.10
2019-06-10T22:01:08.361Z,48.90
2019-06-10T22:03:24.382Z,48.70
2019-06-10T22:05:54.071Z,48.30
2019-06-10T22:08:23.652Z,48.20
2019-06-10T22:10:55.096Z,48.20
2019-06-10T22:13:24.618Z,48.30
2019-06-10T22:15:56.890Z,48.20
2019-06-10T22:18:26.246Z,48.10
2019-06-10T22:20:57.652Z,48.10
2019-06-10T22:23:27.074Z,47.90
2019-06-10T22:25:57.689Z,47.50
2019-06-10T22:28:27.840Z,47.50
2019-06-10T22:31:15.050Z,47.40
2019-06-10T22:33:28.647Z,47.40
2019-06-10T22:35:58.516Z,47.50
2019-06-10T22:38:28.150Z,47.30
2019-06-10T22:40:57.713Z,47.40
2019-06-10T22:43:27.276Z,47.60
2019-06-10T22:45:57.289Z,47.80
2019-06-10T22:48:26.968Z,47.70
2019-06-10T22:50:56.726Z,47.60
2019-06-10T22:53:26.366Z,48.10
2019-06-10T22:55:57.711Z,48.60
2019-06-10T22:58:27.122Z,48.10
2019-06-10T23:00:57.887Z,47.60
2019-06-10T23:03:27.671Z,47.60
2019-06-10T23:05:58.415Z,46.70
2019-06-10T23:08:28.184Z,46.60
2019-06-10T23:10:58.526Z,47.10
2019-06-10T23:13:29.038Z,46.80
2019-06-10T23:15:59.794Z,46.80
2019-06-10T23:18:29.378Z,46.30
2019-06-10T23:20:59.661Z,45.70
2019-06-10T23:23:32.473Z,45.00
2019-06-10T23:26:02.910Z,45.70
2019-06-10T23:28:32.807Z,45.10
2019-06-10T23:31:04.978Z,44.90
2019-06-10T23:33:33.827Z,44.70
2019-06-10T23:36:03.970Z,44.30
2019-06-10T23:38:33.766Z,44.30
2019-06-10T23:41:03.899Z,44.70
2019-06-10T23:43:33.713Z,44.50
2019-06-10T23:46:04.422Z,44.70
2019-06-10T23:48:34.405Z,44.50
2019-06-10T23:51:05.058Z,44.30
2019-06-10T23:53:35.250Z,44.20
2019-06-10T23:56:05.212Z,44.50
2019-06-10T23:58:34.916Z,44.20
